sensor_id;sensor_type;location;lat;lon;timestamp;P1;durP1;ratioP1;P2;durP2;ratioP2
43413;SDS011;73638;49.676;8.606;2024-03-08T00:01:07;2.3406;;;5.349;;
43413;SDS011;73638;49.676;8.606;2024-03-08T00:06:13;3.227;;;3.6779;;
43413;SDS011;73638;49.676;8.606;2024-03-08T00:11:20;3.5314;;;7.2745;;
43413;SDS011;73638;49.676;8.606;2024-03-08T00:16:26;3.075;;;4.5969;;
43413;SDS011;73638;49.676;8.606;2024-03-08T00:21:33;2.8963;;;4.9686;;
43413;SDS011;73638;49.676;8.606;2024-03-08T00:26:40;2.6707;;;3.2104;;
43413;SDS011;73638;49.676;8.606;2024-03-08T00:31:46;2.2402;;;3.9409;;
43413;SDS011;73638;49.676;8.606;2024-03-08T00:36:53;3.6782;;;7.9086;;
43413;SDS011;73638;49.676;8.606;2024-03-08T00:42:00;3.8767;;;6.8386;;
43413;SDS011;73638;49.676;8.606;2024-03-08T00:47:11;2.8854;;;5.6925;;
43413;SDS011;73638;49.676;8.606;2024-03-08T00:52:13;3.1321;;;6.9136;;
43413;SDS011;73638;49.676;8.606;2024-03-08T00:57:19;2.8168;;;7.5834;;
43413;SDS011;73638;49.676;8.606;2024-03-08T01:02:26;2.4339;;;6.0218;;
43413;SDS011;73638;49.676;8.606;2024-03-08T01:07:33;2.4129;;;3.7474;;
43413;SDS011;73638;49.676;8.606;2024-03-08T01:12:39;2.759;;;3.4858;;
43413;SDS011;73638;49.676;8.606;2024-03-08T01:17:46;2.2868;;;6.356;;
43413;SDS011;73638;49.676;8.606;2024-03-08T01:22:53;2.0562;;;5.5045;;
43413;SDS011;73638;49.676;8.606;2024-03-08T01:27:59;3.1209;;;4.7298;;
43413;SDS011;73638;49.676;8.606;2024-03-08T01:33:05;2.4543;;;5.456;;
43413;SDS011;73638;49.676;8.606;2024-03-08T01:38:12;2.5331;;;7.601;;
43413;SDS011;73638;49.676;8.606;2024-03-08T01:43:18;2.6639;;;6.7993;;
43413;SDS011;73638;49.676;8.606;2024-03-08T01:48:25;2.5429;;;3.81;;
43413;SDS011;73638;49.676;8.606;2024-03-08T01:53:31;3.4126;;;8.2153;;
43413;SDS011;73638;49.676;8.606;2024-03-08T01:58:38;3.984;;;5.8934;;
43413;SDS011;73638;49.676;8.606;2024-03-08T02:03:46;2.536;;;4.7398;;
43413;SDS011;73638;49.676;8.606;2024-03-08T02:08:51;2.3322;;;5.1318;;
43413;SDS011;73638;49.676;8.606;2024-03-08T02:13:58;1.9072;;;2.5809;;
43413;SDS011;73638;49.676;8.606;2024-03-08T02:19:04;2.4513;;;3.3689;;
43413;SDS011;73638;49.676;8.606;2024-03-08T02:24:11;2.6878;;;4.3763;;
43413;SDS011;73638;49.676;8.606;2024-03-08T02:29:18;2.6517;;;6.7347;;
43413;SDS011;73638;49.676;8.606;2024-03-08T02:34:24;1.8969;;;4.1806;;
43413;SDS011;73638;49.676;8.606;2024-03-08T02:39:31;2.2746;;;4.9597;;
43413;SDS011;73638;49.676;8.606;2024-03-08T02:44:38;2.8883;;;5.9689;;
43413;SDS011;73638;49.676;8.606;2024-03-08T02:49:44;1.6671;;;2.2257;;
43413;SDS011;73638;49.676;8.606;2024-03-08T02:54:51;1.8243;;;5.0066;;
43413;SDS011;73638;49.676;8.606;2024-03-08T02:59:58;1.8822;;;3.2985;;
43413;SDS011;73638;49.676;8.606;2024-03-08T03:05:05;2.5956;;;3.506;;
43413;SDS011;73638;49.676;8.606;2024-03-08T03:10:11;2.0655;;;3.5168;;
43413;SDS011;73638;49.676;8.606;2024-03-08T03:15:18;1.8035;;;3.1405;;
43413;SDS011;73638;49.676;8.606;2024-03-08T03:20:24;2.0605;;;2.8601;;
43413;SDS011;73638;49.676;8.606;2024-03-08T03:25:31;1.9034;;;2.9838;;
43413;SDS011;73638;49.676;8.606;2024-03-08T03:30:38;2.5106;;;4.8387;;
43413;SDS011;73638;49.676;8.606;2024-03-08T03:35:44;2.7565;;;3.9435;;
43413;SDS011;73638;49.676;8.606;2024-03-08T03:40:51;2.4627;;;4.1137;;
43413;SDS011;73638;49.676;8.606;2024-03-08T03:45:57;1.5666;;;2.2139;;
43413;SDS011;73638;49.676;8.606;2024-03-08T03:51:04;1.5513;;;4.6483;;
43413;SDS011;73638;49.676;8.606;2024-03-08T03:56:11;2.9393;;;4.5953;;
43413;SDS011;73638;49.676;8.606;2024-03-08T04:01:17;2.2008;;;4.5574;;
43413;SDS011;73638;49.676;8.606;2024-03-08T04:06:24;1.9495;;;2.2367;;
43413;SDS011;73638;49.676;8.606;2024-03-08T04:11:30;2.4054;;;3.7801;;
43413;SDS011;73638;49.676;8.606;2024-03-08T04:16:37;2.9389;;;4.9585;;
43413;SDS011;73638;49.676;8.606;2024-03-08T04:21:43;2.4884;;;3.4129;;
43413;SDS011;73638;49.676;8.606;2024-03-08T04:26:50;2.1948;;;2.3742;;
43413;SDS011;73638;49.676;8.606;2024-03-08T04:31:56;2.1057;;;5.5609;;
43413;SDS011;73638;49.676;8.606;2024-03-08T04:37:02;1.728;;;3.6187;;
43413;SDS011;73638;49.676;8.606;2024-03-08T04:42:14;2.4336;;;5.1484;;
43413;SDS011;73638;49.676;8.606;2024-03-08T04:47:16;2.1877;;;3.1238;;
43413;SDS011;73638;49.676;8.606;2024-03-08T04:52:22;2.3399;;;4.4188;;
43413;SDS011;73638;49.676;8.606;2024-03-08T04:57:29;2.6122;;;3.5328;;
43413;SDS011;73638;49.676;8.606;2024-03-08T05:02:36;2.5076;;;3.5532;;
43413;SDS011;73638;49.676;8.606;2024-03-08T05:07:42;3.7329;;;4.5485;;
43413;SDS011;73638;49.676;8.606;2024-03-08T05:12:49;2.2041;;;2.7332;;
43413;SDS011;73638;49.676;8.606;2024-03-08T05:17:55;1.8798;;;3.4357;;
43413;SDS011;73638;49.676;8.606;2024-03-08T05:23:02;2.7231;;;3.5535;;
43413;SDS011;73638;49.676;8.606;2024-03-08T05:28:08;3.3618;;;8.3184;;
43413;SDS011;73638;49.676;8.606;2024-03-08T05:33:14;2.8897;;;4.0548;;
43413;SDS011;73638;49.676;8.606;2024-03-08T05:38:21;2.6333;;;6.7373;;
43413;SDS011;73638;49.676;8.606;2024-03-08T05:43:27;1.8274;;;3.668;;
43413;SDS011;73638;49.676;8.606;2024-03-08T05:48:34;1.9995;;;3.2725;;
43413;SDS011;73638;49.676;8.606;2024-03-08T05:53:40;2.1982;;;5.803;;
43413;SDS011;73638;49.676;8.606;2024-03-08T05:58:46;2.7582;;;3.8635;;
43413;SDS011;73638;49.676;8.606;2024-03-08T06:03:53;2.3395;;;3.6302;;
43413;SDS011;73638;49.676;8.606;2024-03-08T06:08:59;2.3026;;;2.9504;;
43413;SDS011;73638;49.676;8.606;2024-03-08T06:14:05;2.6687;;;3.4147;;
43413;SDS011;73638;49.676;8.606;2024-03-08T06:19:12;1.9096;;;4.3722;;
43413;SDS011;73638;49.676;8.606;2024-03-08T06:24:19;2.0661;;;4.0141;;
43413;SDS011;73638;49.676;8.606;2024-03-08T06:29:25;1.5168;;;2.903;;
43413;SDS011;73638;49.676;8.606;2024-03-08T06:34:32;4.0378;;;7.1025;;
43413;SDS011;73638;49.676;8.606;2024-03-08T06:39:38;3.7526;;;4.7148;;
43413;SDS011;73638;49.676;8.606;2024-03-08T06:44:45;2.3682;;;3.3651;;
43413;SDS011;73638;49.676;8.606;2024-03-08T06:49:51;1.9656;;;2.3373;;
43413;SDS011;73638;49.676;8.606;2024-03-08T06:54:58;1.8404;;;3.1954;;
43413;SDS011;73638;49.676;8.606;2024-03-08T07:00:06;3.4145;;;5.4003;;
43413;SDS011;73638;49.676;8.606;2024-03-08T07:05:12;2.3121;;;5.9449;;
43413;SDS011;73638;49.676;8.606;2024-03-08T07:10:18;2.5221;;;4.613;;
43413;SDS011;73638;49.676;8.606;2024-03-08T07:15:25;3.056;;;4.1842;;
43413;SDS011;73638;49.676;8.606;2024-03-08T07:20:32;3.9409;;;8.895;;
43413;SDS011;73638;49.676;8.606;2024-03-08T07:25:40;3.6374;;;4.9922;;
43413;SDS011;73638;49.676;8.606;2024-03-08T07:30:46;3.1355;;;6.0902;;
43413;SDS011;73638;49.676;8.606;2024-03-08T07:35:52;3.2934;;;9.3651;;
43413;SDS011;73638;49.676;8.606;2024-03-08T07:41:04;1.9638;;;4.6708;;
43413;SDS011;73638;49.676;8.606;2024-03-08T07:46:05;2.7128;;;4.1188;;
43413;SDS011;73638;49.676;8.606;2024-03-08T07:51:12;2.6351;;;6.627;;
43413;SDS011;73638;49.676;8.606;2024-03-08T07:56:18;2.7763;;;5.5266;;
43413;SDS011;73638;49.676;8.606;2024-03-08T08:01:25;2.4622;;;4.3434;;
43413;SDS011;73638;49.676;8.606;2024-03-08T08:06:32;1.718;;;2.6373;;
43413;SDS011;73638;49.676;8.606;2024-03-08T08:11:38;3.0331;;;3.8542;;
43413;SDS011;73638;49.676;8.606;2024-03-08T08:16:45;1.9172;;;2.8575;;
43413;SDS011;73638;49.676;8.606;2024-03-08T08:21:52;2.4722;;;5.9903;;
43413;SDS011;73638;49.676;8.606;2024-03-08T08:26:59;1.6294;;;2.6409;;
43413;SDS011;73638;49.676;8.606;2024-03-08T08:32:06;1.9493;;;2.6174;;
43413;SDS011;73638;49.676;8.606;2024-03-08T08:37:12;2.3007;;;4.2555;;
43413;SDS011;73638;49.676;8.606;2024-03-08T08:42:19;2.4962;;;9.8125;;
43413;SDS011;73638;49.676;8.606;2024-03-08T08:47:29;2.8893;;;4.6661;;
43413;SDS011;73638;49.676;8.606;2024-03-08T08:52:33;1.8984;;;5.1088;;
43413;SDS011;73638;49.676;8.606;2024-03-08T08:57:39;2.8008;;;5.6086;;
43413;SDS011;73638;49.676;8.606;2024-03-08T09:02:46;3.1573;;;8.6462;;
43413;SDS011;73638;49.676;8.606;2024-03-08T09:07:53;2.7278;;;4.5939;;
43413;SDS011;73638;49.676;8.606;2024-03-08T09:12:59;3.4732;;;7.0836;;
43413;SDS011;73638;49.676;8.606;2024-03-08T09:18:06;3.1739;;;7.0857;;
43413;SDS011;73638;49.676;8.606;2024-03-08T09:23:13;2.3244;;;4.2822;;
43413;SDS011;73638;49.676;8.606;2024-03-08T09:28:20;2.4874;;;3.1459;;
43413;SDS011;73638;49.676;8.606;2024-03-08T09:33:26;2.2669;;;3.3963;;
43413;SDS011;73638;49.676;8.606;2024-03-08T09:38:33;3.369;;;5.6654;;
43413;SDS011;73638;49.676;8.606;2024-03-08T09:43:40;2.3723;;;4.5359;;
43413;SDS011;73638;49.676;8.606;2024-03-08T09:48:46;2.8606;;;5.1126;;
43413;SDS011;73638;49.676;8.606;2024-03-08T09:53:53;2.5092;;;5.3071;;
43413;SDS011;73638;49.676;8.606;2024-03-08T09:59:00;2.2573;;;3.4916;;
43413;SDS011;73638;49.676;8.606;2024-03-08T10:04:07;3.4438;;;5.1796;;
43413;SDS011;73638;49.676;8.606;2024-03-08T10:09:13;2.7402;;;4.5764;;
43413;SDS011;73638;49.676;8.606;2024-03-08T10:14:20;2.6197;;;5.9007;;
43413;SDS011;73638;49.676;8.606;2024-03-08T10:19:27;2.573;;;4.539;;
43413;SDS011;73638;49.676;8.606;2024-03-08T10:24:33;3.4558;;;8.5921;;
43413;SDS011;73638;49.676;8.606;2024-03-08T10:29:40;2.4212;;;6.752;;
43413;SDS011;73638;49.676;8.606;2024-03-08T10:34:47;2.7622;;;4.705;;
43413;SDS011;73638;49.676;8.606;2024-03-08T10:39:57;2.5102;;;4.6596;;
43413;SDS011;73638;49.676;8.606;2024-03-08T10:45:03;2.7519;;;5.1307;;
43413;SDS011;73638;49.676;8.606;2024-03-08T10:50:08;3.0037;;;6.1172;;
43413;SDS011;73638;49.676;8.606;2024-03-08T10:55:14;3.34;;;6.6239;;
43413;SDS011;73638;49.676;8.606;2024-03-08T11:00:20;1.8802;;;2.8057;;
43413;SDS011;73638;49.676;8.606;2024-03-08T11:05:31;2.8101;;;5.667;;
43413;SDS011;73638;49.676;8.606;2024-03-08T11:10:34;2.5419;;;5.3535;;
43413;SDS011;73638;49.676;8.606;2024-03-08T11:15:41;3.0302;;;5.7326;;
43413;SDS011;73638;49.676;8.606;2024-03-08T11:20:48;3.3083;;;6.8074;;
43413;SDS011;73638;49.676;8.606;2024-03-08T11:25:55;2.7468;;;7.2055;;
43413;SDS011;73638;49.676;8.606;2024-03-08T11:31:22;2.8001;;;5.2804;;
43413;SDS011;73638;49.676;8.606;2024-03-08T11:36:10;3.2569;;;5.0046;;
43413;SDS011;73638;49.676;8.606;2024-03-08T11:41:20;3.5296;;;7.0752;;
43413;SDS011;73638;49.676;8.606;2024-03-08T11:46:24;3.1198;;;6.0872;;
43413;SDS011;73638;49.676;8.606;2024-03-08T11:51:29;3.2251;;;6.2253;;
43413;SDS011;73638;49.676;8.606;2024-03-08T11:56:36;2.8471;;;6.0886;;
43413;SDS011;73638;49.676;8.606;2024-03-08T12:01:43;3.5779;;;12.697;;
43413;SDS011;73638;49.676;8.606;2024-03-08T12:06:52;3.2052;;;6.7046;;
43413;SDS011;73638;49.676;8.606;2024-03-08T12:11:59;3.2364;;;7.9509;;
43413;SDS011;73638;49.676;8.606;2024-03-08T12:17:05;3.258;;;8.4899;;
43413;SDS011;73638;49.676;8.606;2024-03-08T12:22:12;3.2109;;;5.9346;;
43413;SDS011;73638;49.676;8.606;2024-03-08T12:27:19;2.3806;;;4.8783;;
43413;SDS011;73638;49.676;8.606;2024-03-08T12:32:25;3.0953;;;4.35;;
43413;SDS011;73638;49.676;8.606;2024-03-08T12:37:32;3.5533;;;8.6167;;
43413;SDS011;73638;49.676;8.606;2024-03-08T12:42:39;3.3319;;;6.0501;;
43413;SDS011;73638;49.676;8.606;2024-03-08T12:47:46;3.2532;;;7.4516;;
43413;SDS011;73638;49.676;8.606;2024-03-08T12:52:54;3.868;;;9.1033;;
43413;SDS011;73638;49.676;8.606;2024-03-08T12:58:00;3.7106;;;8.749;;
43413;SDS011;73638;49.676;8.606;2024-03-08T13:03:07;3.1164;;;6.6569;;
43413;SDS011;73638;49.676;8.606;2024-03-08T13:08:14;3.1327;;;6.2801;;
43413;SDS011;73638;49.676;8.606;2024-03-08T13:13:20;2.8913;;;7.2215;;
43413;SDS011;73638;49.676;8.606;2024-03-08T13:18:27;2.334;;;4.485;;
43413;SDS011;73638;49.676;8.606;2024-03-08T13:23:34;2.2761;;;4.5101;;
43413;SDS011;73638;49.676;8.606;2024-03-08T13:28:41;2.9645;;;7.0119;;
43413;SDS011;73638;49.676;8.606;2024-03-08T13:33:48;2.4604;;;5.615;;
43413;SDS011;73638;49.676;8.606;2024-03-08T13:38:54;3.0704;;;5.7214;;
43413;SDS011;73638;49.676;8.606;2024-03-08T13:44:01;2.4814;;;4.5707;;
43413;SDS011;73638;49.676;8.606;2024-03-08T13:49:08;3.0487;;;5.8925;;
43413;SDS011;73638;49.676;8.606;2024-03-08T13:54:15;3.3642;;;7.622;;
43413;SDS011;73638;49.676;8.606;2024-03-08T13:59:21;2.5236;;;5.7671;;
43413;SDS011;73638;49.676;8.606;2024-03-08T14:04:29;2.8548;;;5.451;;
43413;SDS011;73638;49.676;8.606;2024-03-08T14:09:35;3.186;;;8.6558;;
43413;SDS011;73638;49.676;8.606;2024-03-08T14:14:42;2.613;;;6.9735;;
43413;SDS011;73638;49.676;8.606;2024-03-08T14:19:49;3.3337;;;7.303;;
43413;SDS011;73638;49.676;8.606;2024-03-08T14:24:56;2.9917;;;5.0793;;
43413;SDS011;73638;49.676;8.606;2024-03-08T14:30:03;2.7234;;;4.687;;
43413;SDS011;73638;49.676;8.606;2024-03-08T14:35:15;2.6286;;;7.0317;;
43413;SDS011;73638;49.676;8.606;2024-03-08T14:40:17;2.9178;;;5.2887;;
43413;SDS011;73638;49.676;8.606;2024-03-08T14:45:24;2.7182;;;5.0253;;
43413;SDS011;73638;49.676;8.606;2024-03-08T14:50:31;2.5498;;;4.255;;
43413;SDS011;73638;49.676;8.606;2024-03-08T14:55:38;2.6396;;;6.0965;;
43413;SDS011;73638;49.676;8.606;2024-03-08T15:00:45;2.55;;;5.3028;;
43413;SDS011;73638;49.676;8.606;2024-03-08T15:05:51;2.5869;;;4.4514;;
43413;SDS011;73638;49.676;8.606;2024-03-08T15:10:58;2.629;;;6.4542;;
43413;SDS011;73638;49.676;8.606;2024-03-08T15:16:05;2.4029;;;5.3718;;
43413;SDS011;73638;49.676;8.606;2024-03-08T15:21:12;2.7715;;;5.474;;
43413;SDS011;73638;49.676;8.606;2024-03-08T15:26:18;2.3768;;;5.0795;;
43413;SDS011;73638;49.676;8.606;2024-03-08T15:31:25;2.624;;;5.9125;;
43413;SDS011;73638;49.676;8.606;2024-03-08T15:36:32;2.3611;;;5.0694;;
43413;SDS011;73638;49.676;8.606;2024-03-08T15:41:39;2.8607;;;7.2095;;
43413;SDS011;73638;49.676;8.606;2024-03-08T15:46:46;3.2553;;;6.2446;;
43413;SDS011;73638;49.676;8.606;2024-03-08T15:51:53;2.5137;;;5.2583;;
43413;SDS011;73638;49.676;8.606;2024-03-08T15:56:59;2.7871;;;4.4933;;
43413;SDS011;73638;49.676;8.606;2024-03-08T16:02:06;2.8345;;;6.9516;;
43413;SDS011;73638;49.676;8.606;2024-03-08T16:07:13;2.5137;;;6.2851;;
43413;SDS011;73638;49.676;8.606;2024-03-08T16:12:20;2.6399;;;5.7638;;
43413;SDS011;73638;49.676;8.606;2024-03-08T16:17:26;2.4712;;;4.8403;;
43413;SDS011;73638;49.676;8.606;2024-03-08T16:22:33;2.3243;;;6.7878;;
43413;SDS011;73638;49.676;8.606;2024-03-08T16:27:40;2.3506;;;4.8302;;
43413;SDS011;73638;49.676;8.606;2024-03-08T16:32:47;2.2718;;;6.8616;;
43413;SDS011;73638;49.676;8.606;2024-03-08T16:37:54;2.0035;;;3.2475;;
43413;SDS011;73638;49.676;8.606;2024-03-08T16:43:00;2.4504;;;4.0587;;
43413;SDS011;73638;49.676;8.606;2024-03-08T16:48:07;2.5715;;;6.5912;;
43413;SDS011;73638;49.676;8.606;2024-03-08T16:53:14;2.6029;;;5.4374;;
43413;SDS011;73638;49.676;8.606;2024-03-08T16:58:25;2.3663;;;4.99;;
43413;SDS011;73638;49.676;8.606;2024-03-08T17:03:26;2.2451;;;7.1896;;
43413;SDS011;73638;49.676;8.606;2024-03-08T17:08:33;1.8607;;;3.8126;;
43413;SDS011;73638;49.676;8.606;2024-03-08T17:13:39;2.7596;;;5.5865;;
43413;SDS011;73638;49.676;8.606;2024-03-08T17:18:46;2.3334;;;4.2277;;
43413;SDS011;73638;49.676;8.606;2024-03-08T17:23:52;2.1125;;;4.2667;;
43413;SDS011;73638;49.676;8.606;2024-03-08T17:28:59;1.6132;;;5.7345;;
43413;SDS011;73638;49.676;8.606;2024-03-08T17:34:06;1.8496;;;3.1777;;
43413;SDS011;73638;49.676;8.606;2024-03-08T17:39:13;2.3433;;;5.9732;;
43413;SDS011;73638;49.676;8.606;2024-03-08T17:44:19;1.6498;;;2.0738;;
43413;SDS011;73638;49.676;8.606;2024-03-08T17:49:26;2.8213;;;5.9193;;
43413;SDS011;73638;49.676;8.606;2024-03-08T17:54:32;1.8072;;;4.7131;;
43413;SDS011;73638;49.676;8.606;2024-03-08T17:59:39;2.8786;;;6.1703;;
43413;SDS011;73638;49.676;8.606;2024-03-08T18:04:47;2.422;;;4.5181;;
43413;SDS011;73638;49.676;8.606;2024-03-08T18:09:53;2.1171;;;3.2756;;
43413;SDS011;73638;49.676;8.606;2024-03-08T18:14:59;2.9098;;;6.7339;;
43413;SDS011;73638;49.676;8.606;2024-03-08T18:20:06;1.8228;;;5.1392;;
43413;SDS011;73638;49.676;8.606;2024-03-08T18:25:13;1.7704;;;2.5107;;
43413;SDS011;73638;49.676;8.606;2024-03-08T18:30:19;2.2803;;;6.0708;;
43413;SDS011;73638;49.676;8.606;2024-03-08T18:35:26;1.4499;;;2.8053;;
43413;SDS011;73638;49.676;8.606;2024-03-08T18:40:33;1.76;;;4.3375;;
43413;SDS011;73638;49.676;8.606;2024-03-08T18:45:39;1.7181;;;2.8293;;
43413;SDS011;73638;49.676;8.606;2024-03-08T18:50:48;2.3386;;;3.5278;;
43413;SDS011;73638;49.676;8.606;2024-03-08T18:55:53;1.6923;;;2.6682;;
43413;SDS011;73638;49.676;8.606;2024-03-08T19:01:00;2.0604;;;3.8844;;
43413;SDS011;73638;49.676;8.606;2024-03-08T19:06:06;2.1865;;;3.3962;;
43413;SDS011;73638;49.676;8.606;2024-03-08T19:11:13;1.8975;;;2.6663;;
43413;SDS011;73638;49.676;8.606;2024-03-08T19:16:20;1.8608;;;2.1947;;
43413;SDS011;73638;49.676;8.606;2024-03-08T19:21:29;1.4667;;;2.082;;
43413;SDS011;73638;49.676;8.606;2024-03-08T19:26:38;1.7874;;;3.485;;
43413;SDS011;73638;49.676;8.606;2024-03-08T19:31:39;1.456;;;3.5849;;
43413;SDS011;73638;49.676;8.606;2024-03-08T19:36:46;1.398;;;2.8249;;
43413;SDS011;73638;49.676;8.606;2024-03-08T19:41:52;1.4715;;;2.3627;;
43413;SDS011;73638;49.676;8.606;2024-03-08T19:46:59;1.3454;;;2.5492;;
43413;SDS011;73638;49.676;8.606;2024-03-08T19:52:06;1.5347;;;2.6331;;
43413;SDS011;73638;49.676;8.606;2024-03-08T19:57:12;1.1038;;;1.3376;;
43413;SDS011;73638;49.676;8.606;2024-03-08T20:02:19;1.3296;;;3.0971;;
43413;SDS011;73638;49.676;8.606;2024-03-08T20:07:26;1.6975;;;3.8385;;
43413;SDS011;73638;49.676;8.606;2024-03-08T20:12:32;1.5292;;;2.5685;;
43413;SDS011;73638;49.676;8.606;2024-03-08T20:17:39;1.9863;;;3.4732;;
43413;SDS011;73638;49.676;8.606;2024-03-08T20:22:46;1.4395;;;2.7241;;
43413;SDS011;73638;49.676;8.606;2024-03-08T20:27:53;1.0298;;;2.1671;;
43413;SDS011;73638;49.676;8.606;2024-03-08T20:32:58;0.9614;;;1.0748;;
43413;SDS011;73638;49.676;8.606;2024-03-08T20:38:04;1.4187;;;2.3898;;
43413;SDS011;73638;49.676;8.606;2024-03-08T20:43:11;1.1191;;;2.3529;;
43413;SDS011;73638;49.676;8.606;2024-03-08T20:48:18;1.8809;;;3.3558;;
43413;SDS011;73638;49.676;8.606;2024-03-08T20:53:24;1.2662;;;1.6705;;
43413;SDS011;73638;49.676;8.606;2024-03-08T20:58:31;1.1612;;;1.4228;;
43413;SDS011;73638;49.676;8.606;2024-03-08T21:03:38;1.7603;;;3.1206;;
43413;SDS011;73638;49.676;8.606;2024-03-08T21:08:45;1.261;;;1.4691;;
43413;SDS011;73638;49.676;8.606;2024-03-08T21:13:51;0.8932;;;1.5986;;
43413;SDS011;73638;49.676;8.606;2024-03-08T21:18:58;1.2558;;;2.1725;;
43413;SDS011;73638;49.676;8.606;2024-03-08T21:24:04;1.3766;;;1.965;;
43413;SDS011;73638;49.676;8.606;2024-03-08T21:29:11;0.9352;;;1.7637;;
43413;SDS011;73638;49.676;8.606;2024-03-08T21:34:17;2.0334;;;2.3895;;
43413;SDS011;73638;49.676;8.606;2024-03-08T21:39:24;1.0035;;;2.3579;;
43413;SDS011;73638;49.676;8.606;2024-03-08T21:44:30;1.1717;;;2.4939;;
43413;SDS011;73638;49.676;8.606;2024-03-08T21:49:37;1.1823;;;1.7958;;
43413;SDS011;73638;49.676;8.606;2024-03-08T21:54:44;1.2399;;;2.4454;;
43413;SDS011;73638;49.676;8.606;2024-03-08T21:59:50;1.7338;;;2.6321;;
43413;SDS011;73638;49.676;8.606;2024-03-08T22:04:57;1.2189;;;1.9597;;
43413;SDS011;73638;49.676;8.606;2024-03-08T22:10:04;1.7335;;;3.2284;;
43413;SDS011;73638;49.676;8.606;2024-03-08T22:15:10;1.4551;;;2.0297;;
43413;SDS011;73638;49.676;8.606;2024-03-08T22:20:17;1.9227;;;4.0249;;
43413;SDS011;73638;49.676;8.606;2024-03-08T22:25:24;1.2031;;;2.3617;;
43413;SDS011;73638;49.676;8.606;2024-03-08T22:30:30;1.6228;;;2.6709;;
43413;SDS011;73638;49.676;8.606;2024-03-08T22:35:37;1.5649;;;2.8711;;
43413;SDS011;73638;49.676;8.606;2024-03-08T22:40:43;1.1918;;;2.9283;;
43413;SDS011;73638;49.676;8.606;2024-03-08T22:45:50;0.7614;;;1.5505;;
43413;SDS011;73638;49.676;8.606;2024-03-08T22:50:56;1.0134;;;1.6013;;
43413;SDS011;73638;49.676;8.606;2024-03-08T22:56:03;1.3861;;;3.6703;;
43413;SDS011;73638;49.676;8.606;2024-03-08T23:01:09;1.5695;;;5.0682;;
43413;SDS011;73638;49.676;8.606;2024-03-08T23:06:16;1.3176;;;1.7584;;
43413;SDS011;73638;49.676;8.606;2024-03-08T23:11:24;0.8818;;;1.6952;;
43413;SDS011;73638;49.676;8.606;2024-03-08T23:16:29;2.0781;;;2.9361;;
43413;SDS011;73638;49.676;8.606;2024-03-08T23:21:36;1.354;;;3.461;;
43413;SDS011;73638;49.676;8.606;2024-03-08T23:26:42;1.7527;;;4.5054;;
43413;SDS011;73638;49.676;8.606;2024-03-08T23:31:49;1.5216;;;2.9334;;
43413;SDS011;73638;49.676;8.606;2024-03-08T23:36:56;1.5265;;;1.9206;;
43413;SDS011;73638;49.676;8.606;2024-03-08T23:42:03;2.2819;;;3.3497;;
43413;SDS011;73638;49.676;8.606;2024-03-08T23:47:09;1.3746;;;1.5381;;
43413;SDS011;73638;49.676;8.606;2024-03-08T23:52:15;1.9357;;;2.7251;;
43413;SDS011;73638;49.676;8.606;2024-03-08T23:57:22;1.6991;;;2.8374;;
